Time;durP1;ratioP1;P1;durP2;ratioP2;P2;SDS_P1;SDS_P2;PMS_P1;PMS_P2;Temp;Humidity;BMP_temperature;BMP_pressure;BME280_temperature;BME280_humidity;BME280_pressure;Samples;Min_cycle;Max_cycle;Signal;HPM_P1;HPM_P2
2023/10/29 00:01:11;;;;;;;5.95;4.28;;;11.20;99.90;;;;;;5060393;28;20206;-76
2023/10/29 00:03:38;;;;;;;6.45;4.88;;;11.20;99.90;;;;;;5070398;28;20248;-74
2023/10/29 00:06:04;;;;;;;5.93;5.22;;;11.10;99.90;;;;;;5065962;28;20298;-77
2023/10/29 00:08:31;;;;;;;7.75;5.03;;;11.20;99.90;;;;;;5070771;28;20236;-76
2023/10/29 00:10:59;;;;;;;12.88;6.07;;;11.20;99.90;;;;;;5068914;28;20375;-75
2023/10/29 00:13:25;;;;;;;5.25;3.95;;;11.20;99.90;;;;;;5070368;28;20252;-78
2023/10/29 00:15:54;;;;;;;6.07;3.90;;;11.20;99.90;;;;;;5077101;28;20237;-75
2023/10/29 00:18:21;;;;;;;8.18;6.00;;;11.20;99.90;;;;;;5076347;28;20264;-77
2023/10/29 00:20:48;;;;;;;7.13;4.80;;;11.20;99.90;;;;;;5085750;28;20202;-75
2023/10/29 00:23:15;;;;;;;12.43;5.57;;;11.30;99.90;;;;;;5084610;28;20607;-75
2023/10/29 00:25:41;;;;;;;6.22;4.93;;;11.30;99.90;;;;;;5073797;28;20197;-78
2023/10/29 00:28:11;;;;;;;5.30;4.70;;;11.20;99.90;;;;;;5075032;28;20218;-75
2023/10/29 00:30:38;;;;;;;7.68;5.45;;;11.20;99.90;;;;;;5067257;28;20201;-77
2023/10/29 00:33:07;;;;;;;5.50;4.53;;;11.20;99.90;;;;;;5074506;28;20224;-77
2023/10/29 00:35:34;;;;;;;7.53;6.65;;;11.20;99.90;;;;;;5068006;28;20215;-77
2023/10/29 00:38:01;;;;;;;9.90;7.13;;;11.20;99.90;;;;;;5066431;28;20299;-75
2023/10/29 00:40:30;;;;;;;7.22;5.75;;;11.20;99.90;;;;;;5066698;28;20202;-77
2023/10/29 00:42:58;;;;;;;7.07;6.38;;;11.10;99.90;;;;;;5067358;28;20961;-76
2023/10/29 00:45:25;;;;;;;8.45;6.22;;;11.10;99.90;;;;;;5067672;28;20266;-76
2023/10/29 00:47:52;;;;;;;7.93;5.57;;;11.20;99.90;;;;;;5055042;28;20256;-77
2023/10/29 00:50:21;;;;;;;11.98;5.57;;;11.10;99.90;;;;;;5068079;28;20296;-77
2023/10/29 00:52:48;;;;;;;8.13;6.25;;;11.20;99.90;;;;;;5066655;28;20324;-78
2023/10/29 00:55:16;;;;;;;8.40;6.28;;;11.20;99.90;;;;;;5067814;28;20292;-77
2023/10/29 00:57:42;;;;;;;6.85;5.68;;;11.20;99.90;;;;;;5070167;28;20559;-77
2023/10/29 01:00:11;;;;;;;11.10;5.90;;;11.20;99.90;;;;;;5062085;28;20210;-75
2023/10/29 01:02:38;;;;;;;9.93;5.70;;;11.20;99.90;;;;;;5069852;28;20201;-77
2023/10/29 01:05:06;;;;;;;7.43;5.95;;;11.30;99.90;;;;;;5062780;28;20312;-78
2023/10/29 01:07:34;;;;;;;6.80;5.45;;;11.30;99.90;;;;;;5067630;28;20292;-76
2023/10/29 01:10:02;;;;;;;9.48;6.05;;;11.30;99.90;;;;;;5063380;28;20202;-77
2023/10/29 01:12:29;;;;;;;5.70;5.00;;;11.30;99.90;;;;;;5066060;28;20649;-74
2023/10/29 01:14:56;;;;;;;7.43;4.55;;;11.30;99.90;;;;;;5065105;28;20313;-78
2023/10/29 01:17:24;;;;;;;10.48;6.43;;;11.30;99.90;;;;;;5061972;28;20205;-75
2023/10/29 01:19:52;;;;;;;6.95;5.75;;;11.30;99.90;;;;;;5072671;28;20202;-74
2023/10/29 01:22:19;;;;;;;10.93;7.05;;;11.30;99.90;;;;;;5067972;28;20201;-74
2023/10/29 01:24:48;;;;;;;7.55;6.78;;;11.30;99.90;;;;;;5067345;28;20684;-77
2023/10/29 01:27:16;;;;;;;7.93;6.68;;;11.30;99.90;;;;;;5069795;28;20209;-76
2023/10/29 01:29:43;;;;;;;11.23;6.65;;;11.30;99.90;;;;;;5070416;28;20240;-74
2023/10/29 01:32:10;;;;;;;9.10;7.28;;;11.30;99.90;;;;;;5065939;28;20696;-75
2023/10/29 01:34:37;;;;;;;8.38;7.57;;;11.30;99.90;;;;;;5072222;28;20595;-78
2023/10/29 01:37:04;;;;;;;7.88;6.93;;;11.40;99.90;;;;;;5070663;28;20206;-75
2023/10/29 01:39:31;;;;;;;7.65;6.15;;;11.40;99.90;;;;;;5072642;28;20221;-76
2023/10/29 01:41:58;;;;;;;9.63;6.13;;;11.40;99.90;;;;;;5063814;28;20730;-79
2023/10/29 01:44:25;;;;;;;12.38;7.15;;;11.50;99.90;;;;;;5063070;28;20222;-77
2023/10/29 01:46:52;;;;;;;7.53;6.72;;;11.40;99.90;;;;;;5068062;28;20198;-74
2023/10/29 01:49:20;;;;;;;8.60;7.65;;;11.50;99.90;;;;;;5061251;28;20253;-77
2023/10/29 01:51:47;;;;;;;10.27;7.10;;;11.50;99.90;;;;;;5066499;28;20301;-74
2023/10/29 01:54:14;;;;;;;9.43;7.80;;;11.50;99.90;;;;;;5073269;28;20316;-72
2023/10/29 01:56:41;;;;;;;7.95;6.65;;;11.50;99.90;;;;;;5064417;28;20289;-78
2023/10/29 01:59:09;;;;;;;10.15;6.95;;;11.50;99.90;;;;;;5063601;28;20203;-76
2023/10/29 02:01:36;;;;;;;8.00;7.30;;;11.50;99.90;;;;;;5068347;28;20760;-74
2023/10/29 02:04:04;;;;;;;7.90;7.15;;;11.50;99.90;;;;;;5066860;28;20282;-76
2023/10/29 02:06:31;;;;;;;9.52;6.85;;;11.60;99.90;;;;;;5062980;28;20674;-74
2023/10/29 02:09:01;;;;;;;7.60;6.72;;;11.60;99.90;;;;;;5055796;28;20242;-77
2023/10/29 02:11:28;;;;;;;8.95;6.72;;;11.60;99.90;;;;;;5067911;28;20254;-76
2023/10/29 02:13:55;;;;;;;7.57;6.78;;;11.60;99.90;;;;;;5059486;28;20367;-74
2023/10/29 02:16:24;;;;;;;13.07;8.93;;;11.60;99.90;;;;;;5068741;28;20238;-76
2023/10/29 02:18:51;;;;;;;10.25;7.82;;;11.60;99.90;;;;;;5066486;28;20202;-75
2023/10/29 02:21:17;;;;;;;11.95;8.25;;;11.60;99.90;;;;;;5068547;28;20288;-75
2023/10/29 02:23:47;;;;;;;10.20;6.53;;;11.60;99.90;;;;;;5062458;28;20221;-75
2023/10/29 02:26:13;;;;;;;8.27;6.07;;;11.60;99.90;;;;;;5065618;28;20616;-77
2023/10/29 02:28:40;;;;;;;8.35;6.10;;;11.70;99.90;;;;;;5057371;28;20220;-78
2023/10/29 02:31:07;;;;;;;6.22;5.38;;;11.70;99.90;;;;;;5068266;28;20202;-73
2023/10/29 02:33:34;;;;;;;6.97;5.88;;;11.70;99.90;;;;;;5066174;28;20341;-74
2023/10/29 02:36:01;;;;;;;8.93;7.10;;;11.70;99.90;;;;;;5064018;28;20641;-77
2023/10/29 02:38:28;;;;;;;6.50;5.78;;;11.70;99.90;;;;;;5060876;28;20234;-75
2023/10/29 02:40:56;;;;;;;7.85;5.78;;;11.70;99.90;;;;;;5065206;28;20230;-76
2023/10/29 02:43:23;;;;;;;6.43;5.82;;;11.80;99.90;;;;;;5063856;28;20218;-75
2023/10/29 02:45:50;;;;;;;5.18;4.68;;;11.80;99.90;;;;;;5060370;28;20199;-77
2023/10/29 02:48:17;;;;;;;5.63;5.07;;;11.90;99.90;;;;;;5068306;28;20285;-78
2023/10/29 02:50:44;;;;;;;5.20;4.20;;;11.80;99.90;;;;;;5064410;28;20209;-76
2023/10/29 02:53:11;;;;;;;6.38;5.72;;;11.90;99.90;;;;;;5062471;28;20227;-76
2023/10/29 02:55:38;;;;;;;7.70;6.55;;;11.90;99.90;;;;;;5068209;28;20208;-76
2023/10/29 02:58:06;;;;;;;6.22;5.60;;;12.00;99.90;;;;;;5067192;28;20225;-74
2023/10/29 03:00:33;;;;;;;5.28;4.88;;;11.90;99.90;;;;;;5071262;28;20253;-76
2023/10/29 03:03:00;;;;;;;5.78;5.22;;;11.90;99.90;;;;;;5072628;28;20316;-76
2023/10/29 03:05:27;;;;;;;7.03;6.20;;;11.90;99.90;;;;;;5080446;28;20202;-73
2023/10/29 03:07:54;;;;;;;7.88;5.43;;;11.90;99.90;;;;;;5074110;28;20286;-73
2023/10/29 03:10:21;;;;;;;7.28;5.32;;;11.90;99.90;;;;;;5072541;28;20210;-75
2023/10/29 03:12:48;;;;;;;4.88;4.40;;;11.90;99.90;;;;;;5073236;28;20202;-74
2023/10/29 03:15:17;;;;;;;6.68;4.40;;;11.90;99.90;;;;;;5075238;28;20301;-74
2023/10/29 03:17:44;;;;;;;6.65;5.28;;;11.90;99.90;;;;;;5067437;28;20373;-75
2023/10/29 03:20:12;;;;;;;4.63;4.15;;;11.90;99.90;;;;;;5068589;28;20764;-73
2023/10/29 03:22:39;;;;;;;8.55;4.35;;;11.90;99.90;;;;;;5068138;28;20305;-74
2023/10/29 03:25:06;;;;;;;6.55;5.00;;;11.90;99.90;;;;;;5075430;28;20228;-74
2023/10/29 03:27:33;;;;;;;4.72;4.35;;;11.90;99.90;;;;;;5075842;28;20205;-77
2023/10/29 03:30:01;;;;;;;3.45;3.15;;;11.90;99.90;;;;;;5064429;28;20238;-77
2023/10/29 03:32:29;;;;;;;4.45;3.80;;;11.90;99.90;;;;;;5063873;28;20245;-77
2023/10/29 03:34:56;;;;;;;4.63;4.22;;;11.90;99.90;;;;;;5068015;28;20230;-76
2023/10/29 03:37:25;;;;;;;4.75;4.32;;;11.90;99.90;;;;;;5065998;28;20668;-76
2023/10/29 03:39:52;;;;;;;4.53;4.03;;;12.00;99.90;;;;;;5073851;28;20229;-76
2023/10/29 03:42:19;;;;;;;4.28;3.88;;;12.00;99.90;;;;;;5074019;28;20552;-78
2023/10/29 03:44:46;;;;;;;5.35;3.85;;;12.00;99.90;;;;;;5074010;28;20653;-79
2023/10/29 03:47:14;;;;;;;5.25;3.95;;;12.00;99.90;;;;;;5067388;28;20207;-74
2023/10/29 03:49:44;;;;;;;4.18;3.78;;;12.00;99.90;;;;;;5069212;28;20292;-78
2023/10/29 03:52:11;;;;;;;4.43;4.05;;;12.00;99.90;;;;;;5067136;28;20211;-74
2023/10/29 03:54:38;;;;;;;4.82;3.95;;;12.00;99.90;;;;;;5066427;28;20589;-75
2023/10/29 03:57:05;;;;;;;7.03;3.78;;;12.00;99.90;;;;;;5063651;28;20641;-77
2023/10/29 03:59:32;;;;;;;5.28;4.28;;;12.00;99.90;;;;;;5070359;28;20242;-74
2023/10/29 04:01:58;;;;;;;4.78;3.50;;;12.00;99.90;;;;;;5065868;28;20206;-76
2023/10/29 04:04:25;;;;;;;5.05;4.55;;;12.00;99.90;;;;;;5066988;28;20228;-76
2023/10/29 04:06:53;;;;;;;4.93;3.47;;;12.00;99.90;;;;;;5066873;28;20208;-75
2023/10/29 04:09:20;;;;;;;4.53;3.20;;;12.00;99.90;;;;;;5069083;28;20306;-73
2023/10/29 04:11:47;;;;;;;5.47;4.03;;;12.00;99.90;;;;;;5067163;28;20636;-75
2023/10/29 04:14:14;;;;;;;4.80;3.80;;;12.00;99.90;;;;;;5062690;28;20222;-76
2023/10/29 04:16:42;;;;;;;5.38;3.80;;;12.00;99.90;;;;;;5069233;28;20206;-75
2023/10/29 04:19:09;;;;;;;4.13;3.72;;;12.00;99.90;;;;;;5067647;28;20292;-76
2023/10/29 04:21:36;;;;;;;3.00;2.80;;;12.00;99.90;;;;;;5069191;28;20297;-73
2023/10/29 04:24:05;;;;;;;6.40;3.05;;;12.00;99.90;;;;;;5068954;28;20232;-75
2023/10/29 04:26:32;;;;;;;5.10;2.83;;;12.00;99.90;;;;;;5071677;28;20275;-73
2023/10/29 04:28:59;;;;;;;3.47;3.17;;;12.00;99.90;;;;;;5074673;28;20260;-74
2023/10/29 04:31:26;;;;;;;3.17;2.85;;;12.00;99.90;;;;;;5061607;28;20241;-76
2023/10/29 04:33:52;;;;;;;5.30;3.97;;;12.00;99.90;;;;;;5068361;28;20233;-76
2023/10/29 04:36:20;;;;;;;2.97;2.78;;;12.10;99.90;;;;;;5063574;28;20224;-76
2023/10/29 04:38:47;;;;;;;4.28;3.50;;;12.20;99.90;;;;;;5070364;28;20672;-76
2023/10/29 04:41:15;;;;;;;5.03;3.20;;;12.10;99.90;;;;;;5067881;28;20672;-75
2023/10/29 04:43:42;;;;;;;3.15;2.72;;;12.00;99.90;;;;;;5069023;28;20586;-76
2023/10/29 04:46:10;;;;;;;3.08;2.67;;;12.10;99.90;;;;;;5064681;28;20292;-75
2023/10/29 04:48:39;;;;;;;2.63;2.42;;;12.10;99.90;;;;;;5060728;28;20665;-76
2023/10/29 04:51:07;;;;;;;4.93;2.80;;;12.20;99.90;;;;;;5065783;28;20210;-74
2023/10/29 04:53:39;;;;;;;2.63;2.42;;;12.30;99.90;;;;;;5070421;28;20308;-75
2023/10/29 04:56:06;;;;;;;4.18;3.25;;;12.20;99.90;;;;;;5068530;28;20381;-75
2023/10/29 04:58:35;;;;;;;3.25;2.95;;;12.20;99.90;;;;;;5070377;28;20200;-74
2023/10/29 05:01:01;;;;;;;2.42;2.22;;;12.20;99.90;;;;;;5062230;28;20242;-74
2023/10/29 05:03:29;;;;;;;3.22;2.92;;;12.30;99.90;;;;;;5060051;28;20249;-75
2023/10/29 05:05:56;;;;;;;4.60;3.40;;;12.30;99.90;;;;;;5067163;28;20191;-75
2023/10/29 05:08:45;;;;;;;5.82;2.97;;;12.30;99.90;;;;;;5072127;28;20229;-75
2023/10/29 05:11:13;;;;;;;5.97;2.97;;;12.30;99.90;;;;;;5071639;28;20244;-74
2023/10/29 05:13:41;;;;;;;3.50;2.95;;;12.20;99.90;;;;;;5058919;28;20227;-76
2023/10/29 05:16:09;;;;;;;3.78;2.65;;;12.30;99.90;;;;;;5066857;28;20662;-75
2023/10/29 05:18:36;;;;;;;5.82;3.30;;;12.30;99.90;;;;;;5066469;28;20618;-76
2023/10/29 05:21:03;;;;;;;7.03;2.40;;;12.30;99.90;;;;;;5064680;28;20280;-76
2023/10/29 05:23:30;;;;;;;6.82;3.22;;;12.30;99.90;;;;;;5069533;28;20262;-75
2023/10/29 05:25:57;;;;;;;9.35;2.80;;;12.30;99.90;;;;;;5069940;28;20260;-72
2023/10/29 05:28:25;;;;;;;3.25;2.60;;;12.40;99.90;;;;;;5065196;28;20210;-73
2023/10/29 05:30:53;;;;;;;2.28;1.85;;;12.40;99.90;;;;;;5063572;28;20298;-73
2023/10/29 05:33:20;;;;;;;2.05;1.80;;;12.40;99.90;;;;;;5057064;28;20306;-72
2023/10/29 05:35:47;;;;;;;5.07;2.30;;;12.50;99.90;;;;;;5063535;28;20284;-74
2023/10/29 05:38:14;;;;;;;2.20;1.80;;;12.50;99.90;;;;;;5064187;28;20238;-74
2023/10/29 05:40:40;;;;;;;2.95;2.15;;;12.50;99.90;;;;;;5064444;28;20245;-70
2023/10/29 05:43:07;;;;;;;1.73;1.63;;;12.60;99.90;;;;;;5066170;28;20246;-73
2023/10/29 05:45:34;;;;;;;2.25;1.70;;;12.60;99.90;;;;;;5065877;28;20516;-74
2023/10/29 05:48:02;;;;;;;7.60;3.17;;;12.60;99.90;;;;;;5063349;28;20232;-76
2023/10/29 05:50:29;;;;;;;3.60;1.60;;;12.60;99.90;;;;;;5075155;28;20242;-75
2023/10/29 05:52:56;;;;;;;3.40;1.95;;;12.70;99.90;;;;;;5080306;28;20206;-75
2023/10/29 05:55:23;;;;;;;1.58;1.48;;;12.70;99.90;;;;;;5082889;28;20321;-76
2023/10/29 05:57:50;;;;;;;1.88;1.65;;;12.60;99.90;;;;;;5086816;28;20259;-73
2023/10/29 06:00:19;;;;;;;1.98;1.73;;;12.70;99.90;;;;;;5073416;28;20209;-76
2023/10/29 06:02:45;;;;;;;3.38;1.48;;;12.70;99.90;;;;;;5064989;28;20282;-75
2023/10/29 06:05:14;;;;;;;2.50;2.30;;;12.70;99.90;;;;;;5067461;28;20199;-72
2023/10/29 06:07:43;;;;;;;1.65;1.50;;;12.70;99.90;;;;;;5069458;28;20237;-74
2023/10/29 06:10:12;;;;;;;6.63;1.80;;;12.70;99.90;;;;;;5070292;28;20225;-74
2023/10/29 06:12:39;;;;;;;2.03;1.63;;;12.80;99.90;;;;;;5062010;28;20196;-75
2023/10/29 06:15:09;;;;;;;2.38;1.70;;;12.70;99.90;;;;;;5063060;28;20276;-75
2023/10/29 06:17:36;;;;;;;3.00;1.58;;;12.80;99.90;;;;;;5068004;28;20269;-76
2023/10/29 06:20:05;;;;;;;2.00;1.63;;;12.80;99.90;;;;;;5059029;28;20636;-74
2023/10/29 06:22:34;;;;;;;2.50;1.30;;;12.80;99.90;;;;;;5064492;28;20198;-75
2023/10/29 06:25:01;;;;;;;2.45;1.70;;;12.80;99.90;;;;;;5069901;28;20658;-75
2023/10/29 06:27:26;;;;;;;2.70;1.33;;;12.80;99.90;;;;;;5061857;28;20643;-74
2023/10/29 06:29:53;;;;;;;1.33;1.13;;;12.90;99.90;;;;;;5060750;28;20297;-75
2023/10/29 06:32:20;;;;;;;4.70;1.40;;;13.00;99.90;;;;;;5066088;28;20476;-75
2023/10/29 06:34:47;;;;;;;1.50;1.40;;;13.00;99.90;;;;;;5064459;28;20335;-74
2023/10/29 06:37:15;;;;;;;1.95;1.25;;;13.10;99.90;;;;;;5061974;28;20214;-77
2023/10/29 06:39:43;;;;;;;4.32;1.17;;;13.10;99.90;;;;;;5061221;28;20225;-75
2023/10/29 06:42:10;;;;;;;1.25;1.08;;;13.10;99.90;;;;;;5055675;28;20230;-76
2023/10/29 06:44:37;;;;;;;2.42;1.33;;;13.30;99.90;;;;;;5064862;28;20306;-76
2023/10/29 06:47:04;;;;;;;3.13;1.05;;;13.30;99.90;;;;;;5066812;28;20200;-75
2023/10/29 06:49:31;;;;;;;1.58;1.02;;;13.40;99.90;;;;;;5073968;28;20274;-73
2023/10/29 06:51:58;;;;;;;2.63;0.90;;;13.40;99.90;;;;;;5065842;28;20641;-75
2023/10/29 06:54:25;;;;;;;2.00;1.40;;;13.50;99.90;;;;;;5066658;28;20641;-77
2023/10/29 06:56:53;;;;;;;2.17;1.13;;;13.50;99.90;;;;;;5072274;28;20226;-74
2023/10/29 06:59:20;;;;;;;1.40;1.00;;;13.50;99.90;;;;;;5068939;28;20619;-75
2023/10/29 07:01:49;;;;;;;1.40;1.30;;;13.60;99.90;;;;;;5068755;28;20613;-73
2023/10/29 07:04:16;;;;;;;1.38;1.05;;;13.60;99.90;;;;;;5065212;28;20223;-74
2023/10/29 07:06:44;;;;;;;3.67;1.10;;;13.60;99.90;;;;;;5071297;28;20302;-74
2023/10/29 07:09:10;;;;;;;3.03;1.23;;;13.80;99.90;;;;;;5068122;28;20206;-74
2023/10/29 07:11:37;;;;;;;3.97;1.20;;;13.80;99.90;;;;;;5061214;28;20741;-73
2023/10/29 07:14:06;;;;;;;3.08;1.60;;;13.80;99.90;;;;;;5069386;28;20233;-75
2023/10/29 07:16:32;;;;;;;3.55;1.50;;;13.80;99.90;;;;;;5064278;28;20273;-73
2023/10/29 07:18:59;;;;;;;1.80;1.67;;;13.90;99.90;;;;;;5069819;28;20670;-74
2023/10/29 07:21:26;;;;;;;2.05;1.48;;;13.90;99.90;;;;;;5066784;28;20223;-75
2023/10/29 07:23:53;;;;;;;1.58;1.10;;;14.00;99.90;;;;;;5062885;28;20698;-77
2023/10/29 07:26:21;;;;;;;1.75;0.90;;;14.00;99.90;;;;;;5075484;28;20290;-74
2023/10/29 07:28:48;;;;;;;1.73;1.40;;;14.10;99.90;;;;;;5067912;28;20229;-75
2023/10/29 07:31:16;;;;;;;2.78;0.90;;;14.10;99.90;;;;;;5065414;28;20203;-75
2023/10/29 07:33:43;;;;;;;1.95;1.20;;;14.20;99.90;;;;;;5070977;28;20314;-75
2023/10/29 07:36:10;;;;;;;1.20;1.08;;;14.20;99.90;;;;;;5069313;28;20313;-75
2023/10/29 07:38:37;;;;;;;1.85;0.90;;;14.20;99.90;;;;;;5062564;28;20246;-73
2023/10/29 07:41:04;;;;;;;1.77;1.10;;;14.20;99.90;;;;;;5074310;28;20290;-73
2023/10/29 07:43:31;;;;;;;5.13;1.40;;;14.20;99.90;;;;;;5063969;28;20279;-73
2023/10/29 07:46:02;;;;;;;1.85;1.15;;;14.20;99.90;;;;;;5071438;28;20278;-76
2023/10/29 07:48:31;;;;;;;1.70;1.23;;;14.20;99.90;;;;;;5067074;28;20293;-74
2023/10/29 07:50:58;;;;;;;2.13;1.45;;;14.20;99.90;;;;;;5071084;28;20394;-73
2023/10/29 07:53:26;;;;;;;2.13;1.40;;;14.30;99.90;;;;;;5072959;28;20701;-75
2023/10/29 07:55:54;;;;;;;2.63;1.80;;;14.30;99.90;;;;;;5071008;28;20227;-73
2023/10/29 07:58:21;;;;;;;2.28;1.17;;;14.50;99.90;;;;;;5068821;28;20213;-74
2023/10/29 08:00:48;;;;;;;2.42;1.27;;;14.60;99.90;;;;;;5065773;28;20204;-75
2023/10/29 08:03:16;;;;;;;3.05;1.58;;;14.80;99.90;;;;;;5066094;28;20769;-76
2023/10/29 08:05:52;;;;;;;4.20;2.00;;;15.10;99.90;;;;;;5065596;28;20690;-73
2023/10/29 08:08:19;;;;;;;2.03;1.40;;;15.70;99.90;;;;;;5071850;28;20205;-74
2023/10/29 08:10:46;;;;;;;2.80;1.33;;;16.60;99.90;;;;;;5070319;28;20528;-74
2023/10/29 08:13:12;;;;;;;3.40;1.40;;;17.30;99.90;;;;;;5067577;28;20547;-74
2023/10/29 08:15:40;;;;;;;4.30;1.80;;;18.00;99.90;;;;;;5068822;28;20491;-73
2023/10/29 08:18:07;;;;;;;2.97;1.70;;;18.80;99.90;;;;;;5067392;28;20943;-76
2023/10/29 08:20:35;;;;;;;2.30;1.20;;;19.10;99.90;;;;;;5070635;28;20536;-75
2023/10/29 08:23:03;;;;;;;2.30;1.30;;;19.70;99.90;;;;;;5064905;28;20529;-75
2023/10/29 08:25:30;;;;;;;3.50;1.20;;;20.30;99.90;;;;;;5068960;28;20448;-73
2023/10/29 08:27:57;;;;;;;1.93;1.30;;;21.40;99.90;;;;;;5070991;28;20449;-74
2023/10/29 08:30:24;;;;;;;3.20;1.00;;;21.80;99.90;;;;;;5063952;28;20508;-75
2023/10/29 08:32:51;;;;;;;4.50;2.40;;;22.60;99.80;;;;;;5064746;28;20519;-74
2023/10/29 08:35:17;;;;;;;1.97;1.30;;;23.10;97.50;;;;;;5069610;28;20575;-76
2023/10/29 08:37:45;;;;;;;2.00;0.90;;;23.60;96.40;;;;;;5067413;28;20528;-75
2023/10/29 08:40:14;;;;;;;3.50;0.90;;;24.10;95.40;;;;;;5070755;28;20475;-75
2023/10/29 08:42:41;;;;;;;2.17;1.20;;;23.60;95.20;;;;;;5067313;28;20499;-75
2023/10/29 08:45:09;;;;;;;1.67;1.13;;;23.40;95.40;;;;;;5075325;28;20469;-74
2023/10/29 08:47:36;;;;;;;2.17;1.10;;;22.50;95.80;;;;;;5079924;28;20446;-75
2023/10/29 08:50:04;;;;;;;3.30;1.60;;;21.50;97.60;;;;;;5084883;28;20474;-76
2023/10/29 08:52:31;;;;;;;6.00;1.07;;;20.40;99.20;;;;;;5086501;28;20431;-73
2023/10/29 08:54:58;;;;;;;2.73;1.67;;;19.70;99.90;;;;;;5082925;28;20471;-76
2023/10/29 08:57:26;;;;;;;1.83;1.07;;;18.80;99.90;;;;;;5063706;28;20483;-74
2023/10/29 08:59:53;;;;;;;7.93;2.73;;;18.90;99.90;;;;;;5072541;28;20531;-76
2023/10/29 09:02:20;;;;;;;2.10;1.30;;;19.60;99.90;;;;;;5073689;28;20488;-74
2023/10/29 09:04:47;;;;;;;4.33;2.77;;;19.90;99.90;;;;;;5074249;28;20489;-74
2023/10/29 09:07:14;;;;;;;1.93;1.10;;;19.50;99.90;;;;;;5072439;28;20447;-74
2023/10/29 09:09:41;;;;;;;2.60;0.93;;;19.30;99.90;;;;;;5072145;28;20514;-76
2023/10/29 09:12:08;;;;;;;1.73;0.73;;;18.90;99.90;;;;;;5073693;28;20498;-75
2023/10/29 09:14:37;;;;;;;3.83;0.97;;;18.40;99.90;;;;;;5074135;28;20480;-76
2023/10/29 09:17:04;;;;;;;3.60;0.93;;;17.90;99.90;;;;;;5074350;28;20538;-75
2023/10/29 09:19:31;;;;;;;3.37;1.20;;;17.40;99.90;;;;;;5072334;28;20525;-75
2023/10/29 09:21:58;;;;;;;3.17;1.43;;;16.90;99.90;;;;;;5073138;28;20457;-75
2023/10/29 09:24:25;;;;;;;1.73;1.10;;;16.60;99.90;;;;;;5073260;28;20495;-75
2023/10/29 09:26:52;;;;;;;3.50;1.10;;;16.50;99.90;;;;;;5061879;28;20512;-76
2023/10/29 09:29:19;;;;;;;2.87;1.37;;;16.40;99.90;;;;;;5073465;28;20532;-75
2023/10/29 09:31:47;;;;;;;2.40;1.00;;;16.30;99.90;;;;;;5067696;28;20452;-73
2023/10/29 09:34:14;;;;;;;3.77;1.23;;;16.20;99.90;;;;;;5067822;28;20236;-74
2023/10/29 09:36:43;;;;;;;2.20;1.00;;;15.90;99.90;;;;;;5061556;28;20521;-74
2023/10/29 09:39:10;;;;;;;2.10;1.37;;;15.90;99.90;;;;;;5062058;28;20451;-76
2023/10/29 09:41:38;;;;;;;3.13;1.10;;;15.80;99.90;;;;;;5061376;28;20495;-74
2023/10/29 09:44:17;;;;;;;5.67;1.63;;;16.30;99.90;;;;;;5069847;28;20465;-75
2023/10/29 09:46:47;;;;;;;6.03;1.00;;;17.00;99.90;;;;;;5065934;28;20545;-74
2023/10/29 09:49:15;;;;;;;4.13;2.03;;;17.30;99.90;;;;;;5067633;28;20445;-73
2023/10/29 09:51:42;;;;;;;3.17;1.73;;;17.20;99.90;;;;;;5064297;28;20449;-75
2023/10/29 09:54:09;;;;;;;3.70;1.00;;;16.80;99.90;;;;;;5061430;28;20457;-75
2023/10/29 09:56:37;;;;;;;4.20;1.27;;;16.40;99.90;;;;;;5055931;28;20898;-74
2023/10/29 09:59:06;;;;;;;2.67;1.23;;;16.40;99.90;;;;;;5065654;28;20470;-74
2023/10/29 10:01:33;;;;;;;2.27;1.20;;;16.70;99.90;;;;;;5059831;28;20453;-73
2023/10/29 10:04:01;;;;;;;5.27;1.10;;;17.00;99.90;;;;;;5058152;28;20469;-75
2023/10/29 10:06:28;;;;;;;4.30;1.00;;;17.40;99.90;;;;;;5066197;28;20437;-75
2023/10/29 10:08:56;;;;;;;7.20;1.37;;;17.80;99.90;;;;;;5059709;28;20498;-72
2023/10/29 10:11:24;;;;;;;2.40;1.17;;;18.10;99.90;;;;;;5063005;28;20442;-74
2023/10/29 10:13:51;;;;;;;3.90;1.83;;;18.20;99.90;;;;;;5063148;28;20465;-74
2023/10/29 10:16:19;;;;;;;3.40;1.50;;;18.20;99.90;;;;;;5067038;28;20556;-74
2023/10/29 10:18:51;;;;;;;4.43;1.13;;;18.40;99.90;;;;;;5066689;28;20829;-74
2023/10/29 10:21:21;;;;;;;5.30;1.47;;;18.30;99.90;;;;;;5057600;28;20441;-73
2023/10/29 10:23:49;;;;;;;4.13;1.17;;;18.10;99.90;;;;;;5056443;28;20479;-73
2023/10/29 10:26:18;;;;;;;2.23;1.40;;;18.30;99.90;;;;;;5071791;28;20442;-75
2023/10/29 10:28:55;;;;;;;5.40;1.60;;;18.40;99.90;;;;;;5065907;28;20454;-74
2023/10/29 10:31:25;;;;;;;4.57;1.53;;;18.60;99.90;;;;;;5067749;28;20496;-74
2023/10/29 10:34:10;;;;;;;4.43;1.53;;;18.40;99.90;;;;;;5058115;28;20556;-73
2023/10/29 10:36:38;;;;;;;2.60;1.40;;;18.20;99.90;;;;;;5060915;28;21001;-74
2023/10/29 10:39:05;;;;;;;4.97;1.60;;;18.00;99.90;;;;;;5060983;28;20455;-73
2023/10/29 10:41:42;;;;;;;4.53;1.67;;;18.10;99.90;;;;;;5062136;28;20503;-74
2023/10/29 10:44:10;;;;;;;4.73;0.97;;;18.00;99.90;;;;;;5062397;28;20878;-73
2023/10/29 10:46:39;;;;;;;4.63;1.20;;;17.90;99.90;;;;;;5065128;28;20437;-74
2023/10/29 10:49:07;;;;;;;3.80;1.30;;;17.90;99.90;;;;;;5058409;28;20442;-73
2023/10/29 10:51:36;;;;;;;6.43;2.00;;;18.00;99.90;;;;;;5064598;28;20439;-73
2023/10/29 10:54:06;;;;;;;9.87;1.83;;;18.20;99.90;;;;;;5062903;28;20462;-73
2023/10/29 10:56:36;;;;;;;8.87;1.83;;;18.10;99.90;;;;;;5064498;28;20481;-74
2023/10/29 10:59:05;;;;;;;2.40;1.27;;;18.10;99.90;;;;;;5066801;28;20439;-73
2023/10/29 11:01:32;;;;;;;2.10;1.07;;;17.90;99.90;;;;;;5059675;28;20441;-74
2023/10/29 11:04:00;;;;;;;2.77;1.20;;;17.90;99.90;;;;;;5059617;28;20504;-72
2023/10/29 11:06:27;;;;;;;3.20;1.50;;;17.70;99.90;;;;;;5057403;28;20438;-74
2023/10/29 11:08:55;;;;;;;7.80;1.53;;;17.80;99.90;;;;;;5056543;28;20710;-73
2023/10/29 11:11:25;;;;;;;2.40;1.23;;;18.00;99.90;;;;;;5059262;28;20458;-74
2023/10/29 11:14:08;;;;;;;4.70;1.93;;;18.00;99.90;;;;;;5065548;28;20480;-74
2023/10/29 11:16:49;;;;;;;5.73;1.70;;;17.70;99.90;;;;;;5054418;28;20555;-73
2023/10/29 11:19:42;;;;;;;7.63;2.77;;;17.70;99.90;;;;;;5063508;28;20448;-74
2023/10/29 11:22:16;;;;;;;3.67;1.50;;;17.60;99.90;;;;;;5053770;28;20504;-71
2023/10/29 11:24:43;;;;;;;4.43;1.67;;;17.70;99.90;;;;;;5061964;28;20454;-75
2023/10/29 11:27:36;;;;;;;7.83;1.60;;;17.40;99.90;;;;;;5067715;28;20444;-73
2023/10/29 11:30:14;;;;;;;2.83;1.67;;;17.40;99.90;;;;;;5068093;28;20496;-75
2023/10/29 11:32:42;;;;;;;4.43;2.00;;;17.50;99.90;;;;;;5072652;28;20449;-73
2023/10/29 11:35:22;;;;;;;4.30;1.70;;;17.40;99.90;;;;;;5072511;28;20968;-73
2023/10/29 11:37:51;;;;;;;2.80;1.80;;;17.20;99.90;;;;;;5078479;28;21239;-72
2023/10/29 11:40:38;;;;;;;4.33;1.80;;;17.20;99.90;;;;;;5081907;28;20449;-72
2023/10/29 11:43:21;;;;;;;5.23;1.50;;;17.20;99.90;;;;;;5083324;28;20441;-74
2023/10/29 11:45:54;;;;;;;4.47;2.00;;;17.10;99.90;;;;;;5080765;28;20456;-74
2023/10/29 11:48:21;;;;;;;5.60;1.83;;;17.00;99.90;;;;;;5069623;28;20838;-76
2023/10/29 11:51:19;;;;;;;5.37;1.47;;;17.10;99.90;;;;;;5060900;28;20499;-75
2023/10/29 11:53:47;;;;;;;5.93;2.00;;;17.20;99.90;;;;;;5070654;28;20555;-74
2023/10/29 11:56:16;;;;;;;5.33;2.07;;;17.20;99.90;;;;;;5060583;28;20488;-72
2023/10/29 11:58:44;;;;;;;4.20;1.93;;;17.10;99.90;;;;;;5066790;28;20467;-73
2023/10/29 12:01:17;;;;;;;6.53;2.30;;;17.10;99.90;;;;;;5064963;28;20441;-74
2023/10/29 12:03:51;;;;;;;7.53;1.80;;;17.10;99.90;;;;;;5067517;28;20813;-73
2023/10/29 12:06:18;;;;;;;3.63;1.30;;;17.00;99.90;;;;;;5061193;28;20976;-74
2023/10/29 12:08:45;;;;;;;8.40;1.20;;;17.10;99.90;;;;;;5069189;28;20437;-75
2023/10/29 12:11:13;;;;;;;2.23;1.50;;;17.00;99.90;;;;;;5064801;28;20525;-74
2023/10/29 12:13:41;;;;;;;3.27;1.43;;;17.10;99.90;;;;;;5061745;28;20483;-75
2023/10/29 12:16:12;;;;;;;6.30;4.07;;;17.20;99.90;;;;;;5067252;28;20486;-74
2023/10/29 12:18:40;;;;;;;3.37;1.30;;;17.20;99.90;;;;;;5066651;28;20762;-73
2023/10/29 12:21:09;;;;;;;4.50;1.57;;;17.30;99.90;;;;;;5068982;28;20480;-74
2023/10/29 12:23:36;;;;;;;3.73;1.67;;;17.20;99.90;;;;;;5064918;28;20468;-73
2023/10/29 12:26:06;;;;;;;6.00;1.83;;;17.20;99.90;;;;;;5064777;28;20441;-73
2023/10/29 12:28:34;;;;;;;5.90;2.00;;;17.10;99.90;;;;;;5066995;28;20517;-73
2023/10/29 12:31:01;;;;;;;5.57;1.63;;;17.10;99.90;;;;;;5071626;28;20975;-75
2023/10/29 12:33:33;;;;;;;5.60;1.60;;;17.10;99.90;;;;;;5064857;28;20550;-74
2023/10/29 12:36:02;;;;;;;5.23;1.50;;;17.00;99.90;;;;;;5068533;28;20518;-76
2023/10/29 12:38:29;;;;;;;7.53;1.97;;;17.00;99.90;;;;;;5062739;28;20524;-73
2023/10/29 12:41:08;;;;;;;3.57;1.43;;;16.90;99.90;;;;;;5063341;28;20453;-74
2023/10/29 12:43:36;;;;;;;5.83;2.90;;;16.70;99.90;;;;;;5068580;28;20457;-74
2023/10/29 12:46:05;;;;;;;5.50;1.50;;;16.60;99.90;;;;;;5060366;28;20536;-73
2023/10/29 12:48:33;;;;;;;5.43;1.90;;;16.50;99.90;;;;;;5066025;28;20528;-74
2023/10/29 12:51:02;;;;;;;3.83;1.90;;;16.50;99.90;;;;;;5063389;28;20464;-74